Time;durP1;ratioP1;P1;durP2;ratioP2;P2;SDS_P1;SDS_P2;PMS_P1;PMS_P2;Temp;Humidity;BMP_temperature;BMP_pressure;BME280_temperature;BME280_humidity;BME280_pressure;Samples;Min_cycle;Max_cycle;Signal;HPM_P1;HPM_P2
2021/01/25 00:01:05;;;;;;;9.50;4.47;;;;;;;;;;1822281;79;21105;-74
2021/01/25 00:03:31;;;;;;;11.60;4.70;;;;;;;;;;1822356;79;21112;-74
2021/01/25 00:05:57;;;;;;;7.17;3.98;;;;;;;;;;1822385;79;21231;-74
2021/01/25 00:08:24;;;;;;;9.10;4.53;;;;;;;;;;1822270;79;21263;-74
2021/01/25 00:10:50;;;;;;;10.58;4.60;;;;;;;;;;1822350;79;21174;-74
2021/01/25 00:13:16;;;;;;;9.68;4.40;;;;;;;;;;1822347;79;21129;-74
2021/01/25 00:15:42;;;;;;;7.42;4.05;;;;;;;;;;1822566;79;21141;-73
2021/01/25 00:18:08;;;;;;;6.65;3.77;;;;;;;;;;1822194;79;21514;-74
2021/01/25 00:20:35;;;;;;;9.20;4.53;;;;;;;;;;1822655;79;21203;-73
2021/01/25 00:23:01;;;;;;;10.60;4.30;;;;;;;;;;1822441;79;21536;-73
2021/01/25 00:25:27;;;;;;;8.25;4.10;;;;;;;;;;1822255;79;21200;-73
2021/01/25 00:27:53;;;;;;;10.63;4.55;;;;;;;;;;1822802;79;21145;-74
2021/01/25 00:30:19;;;;;;;7.25;4.40;;;;;;;;;;1822392;79;21732;-73
2021/01/25 00:32:45;;;;;;;8.33;4.10;;;;;;;;;;1822252;79;21240;-74
2021/01/25 00:35:12;;;;;;;8.00;4.65;;;;;;;;;;1822347;79;21698;-74
2021/01/25 00:37:38;;;;;;;8.10;4.45;;;;;;;;;;1822236;79;21763;-74
2021/01/25 00:40:05;;;;;;;7.75;4.65;;;;;;;;;;1822237;79;21127;-74
2021/01/25 00:42:32;;;;;;;6.95;4.12;;;;;;;;;;1822220;79;21203;-74
2021/01/25 00:44:59;;;;;;;9.40;3.92;;;;;;;;;;1822510;79;21560;-73
2021/01/25 00:47:25;;;;;;;6.45;4.22;;;;;;;;;;1822360;79;21133;-73
2021/01/25 00:49:51;;;;;;;6.97;4.08;;;;;;;;;;1822401;79;21675;-74
2021/01/25 00:52:17;;;;;;;9.95;4.45;;;;;;;;;;1822627;79;21151;-74
2021/01/25 00:54:44;;;;;;;7.95;4.20;;;;;;;;;;1822503;79;21144;-74
2021/01/25 00:57:10;;;;;;;8.48;4.17;;;;;;;;;;1822461;79;21259;-74
2021/01/25 00:59:36;;;;;;;7.20;4.12;;;;;;;;;;1822414;79;21284;-74
2021/01/25 01:02:02;;;;;;;7.28;4.03;;;;;;;;;;1822271;79;21129;-74
2021/01/25 01:04:28;;;;;;;7.35;4.20;;;;;;;;;;1822360;79;21200;-74
2021/01/25 01:06:54;;;;;;;10.03;4.92;;;;;;;;;;1822437;79;21136;-73
2021/01/25 01:09:20;;;;;;;8.80;4.20;;;;;;;;;;1822358;79;21529;-74
2021/01/25 01:11:46;;;;;;;7.90;4.10;;;;;;;;;;1822360;79;21137;-74
2021/01/25 01:14:12;;;;;;;9.33;4.42;;;;;;;;;;1822581;79;21121;-74
2021/01/25 01:16:39;;;;;;;7.67;4.28;;;;;;;;;;1822303;79;21339;-75
2021/01/25 01:19:05;;;;;;;7.20;3.52;;;;;;;;;;1822235;79;21122;-74
2021/01/25 01:21:31;;;;;;;11.15;4.20;;;;;;;;;;1822330;79;21699;-74
2021/01/25 01:23:57;;;;;;;9.75;4.50;;;;;;;;;;1822346;79;21145;-73
2021/01/25 01:26:23;;;;;;;8.08;4.60;;;;;;;;;;1822285;79;21129;-74
2021/01/25 01:28:49;;;;;;;11.48;5.08;;;;;;;;;;1822231;79;21157;-74
2021/01/25 01:31:15;;;;;;;10.53;4.65;;;;;;;;;;1822320;79;21129;-73
2021/01/25 01:33:42;;;;;;;9.65;4.35;;;;;;;;;;1822206;79;21094;-73
2021/01/25 01:36:08;;;;;;;10.78;4.58;;;;;;;;;;1822555;79;21545;-73
2021/01/25 01:38:34;;;;;;;9.05;4.72;;;;;;;;;;1822443;79;21329;-74
2021/01/25 01:41:00;;;;;;;12.10;4.62;;;;;;;;;;1822312;79;21161;-74
2021/01/25 01:43:27;;;;;;;9.38;4.90;;;;;;;;;;1822466;79;21276;-73
2021/01/25 01:45:53;;;;;;;8.63;5.00;;;;;;;;;;1822525;79;21584;-74
2021/01/25 01:48:19;;;;;;;8.28;4.40;;;;;;;;;;1822854;79;21129;-73
2021/01/25 01:50:45;;;;;;;9.38;4.80;;;;;;;;;;1795285;79;21577;-73
2021/01/25 01:53:11;;;;;;;9.00;4.90;;;;;;;;;;1822323;79;21153;-74
2021/01/25 01:55:38;;;;;;;9.15;4.55;;;;;;;;;;1822611;79;21132;-73
2021/01/25 01:58:04;;;;;;;10.63;4.58;;;;;;;;;;1822462;79;21557;-73
2021/01/25 02:00:30;;;;;;;9.53;4.70;;;;;;;;;;1822724;79;21140;-73
2021/01/25 02:02:56;;;;;;;8.13;4.40;;;;;;;;;;1822634;79;21125;-74
2021/01/25 02:05:22;;;;;;;9.80;4.42;;;;;;;;;;1822581;79;21128;-74
2021/01/25 02:07:51;;;;;;;9.53;4.90;;;;;;;;;;1820027;79;21573;-73
2021/01/25 02:10:19;;;;;;;7.78;4.58;;;;;;;;;;1819148;79;21272;-73
2021/01/25 02:12:47;;;;;;;10.75;4.83;;;;;;;;;;1818927;79;21585;-73
2021/01/25 02:15:13;;;;;;;9.30;4.80;;;;;;;;;;1819111;79;21541;-73
2021/01/25 02:17:40;;;;;;;9.85;5.08;;;;;;;;;;1819286;79;21164;-74
2021/01/25 02:20:07;;;;;;;8.53;5.55;;;;;;;;;;1819034;79;21133;-73
2021/01/25 02:22:38;;;;;;;7.90;4.58;;;;;;;;;;1819246;79;21129;-73
2021/01/25 02:25:15;;;;;;;15.25;5.22;;;;;;;;;;1819227;79;21136;-74
2021/01/25 02:27:43;;;;;;;10.40;5.33;;;;;;;;;;1813911;79;21573;-73
2021/01/25 02:30:10;;;;;;;12.53;5.35;;;;;;;;;;1818900;79;21145;-74
2021/01/25 02:32:36;;;;;;;11.00;4.30;;;;;;;;;;1819261;79;21110;-74
2021/01/25 02:35:03;;;;;;;9.40;4.70;;;;;;;;;;1819053;79;21152;-73
2021/01/25 02:37:29;;;;;;;11.83;4.65;;;;;;;;;;1819170;79;21160;-73
2021/01/25 02:39:56;;;;;;;9.75;4.62;;;;;;;;;;1818906;79;21565;-73
2021/01/25 02:42:22;;;;;;;7.30;4.28;;;;;;;;;;1818863;79;21118;-74
2021/01/25 02:44:49;;;;;;;9.15;4.50;;;;;;;;;;1819211;79;21106;-73
2021/01/25 02:47:17;;;;;;;10.85;4.47;;;;;;;;;;1818816;79;21133;-74
2021/01/25 02:49:43;;;;;;;8.80;4.70;;;;;;;;;;1818890;79;21137;-74
2021/01/25 02:52:10;;;;;;;10.05;5.03;;;;;;;;;;1819052;79;21573;-74
2021/01/25 02:54:37;;;;;;;9.08;4.50;;;;;;;;;;1819175;79;21533;-74
2021/01/25 02:57:03;;;;;;;7.83;4.10;;;;;;;;;;1819116;79;21129;-74
2021/01/25 02:59:29;;;;;;;11.53;4.78;;;;;;;;;;1819171;79;21169;-74
2021/01/25 03:01:55;;;;;;;8.20;4.95;;;;;;;;;;1819049;79;21592;-74
2021/01/25 03:04:22;;;;;;;11.22;4.75;;;;;;;;;;1818984;79;21105;-73
2021/01/25 03:06:48;;;;;;;9.80;4.83;;;;;;;;;;1819290;79;21149;-73
2021/01/25 03:09:15;;;;;;;8.50;4.28;;;;;;;;;;1822349;79;21211;-74
2021/01/25 03:11:41;;;;;;;10.05;4.33;;;;;;;;;;1822427;79;21132;-73
2021/01/25 03:14:07;;;;;;;8.83;4.47;;;;;;;;;;1822253;79;21121;-72
2021/01/25 03:16:34;;;;;;;10.00;4.17;;;;;;;;;;1822340;79;21263;-73
2021/01/25 03:19:00;;;;;;;8.53;4.00;;;;;;;;;;1822452;79;21549;-74
2021/01/25 03:21:26;;;;;;;9.10;4.90;;;;;;;;;;1822486;79;21264;-73
2021/01/25 03:23:52;;;;;;;9.18;4.42;;;;;;;;;;1822407;79;21125;-74
2021/01/25 03:26:18;;;;;;;11.15;5.25;;;;;;;;;;1822371;79;21279;-73
2021/01/25 03:28:44;;;;;;;8.33;4.22;;;;;;;;;;1822388;79;21676;-73
2021/01/25 03:31:11;;;;;;;10.75;4.17;;;;;;;;;;1822242;79;21271;-73
2021/01/25 03:33:37;;;;;;;10.10;4.50;;;;;;;;;;1822356;79;21569;-73
2021/01/25 03:36:03;;;;;;;7.37;3.95;;;;;;;;;;1822332;79;21129;-74
2021/01/25 03:38:30;;;;;;;9.03;4.37;;;;;;;;;;1822308;79;21275;-74
2021/01/25 03:40:56;;;;;;;8.63;4.00;;;;;;;;;;1822318;79;21631;-74
2021/01/25 03:43:22;;;;;;;8.03;3.80;;;;;;;;;;1822352;79;21137;-74
2021/01/25 03:45:48;;;;;;;7.45;4.25;;;;;;;;;;1822344;79;21316;-73
2021/01/25 03:48:14;;;;;;;9.23;4.28;;;;;;;;;;1822593;79;21153;-74
2021/01/25 03:50:40;;;;;;;7.12;3.77;;;;;;;;;;1822363;79;21695;-74
2021/01/25 03:53:06;;;;;;;7.70;3.62;;;;;;;;;;1822639;79;21152;-74
2021/01/25 03:55:33;;;;;;;8.95;3.83;;;;;;;;;;1822457;79;21711;-74
2021/01/25 03:57:59;;;;;;;5.60;3.27;;;;;;;;;;1822605;79;21144;-74
2021/01/25 04:00:25;;;;;;;7.22;3.52;;;;;;;;;;1821245;79;21149;-74
2021/01/25 04:02:51;;;;;;;8.68;4.17;;;;;;;;;;1819947;79;21137;-74
2021/01/25 04:05:17;;;;;;;9.30;3.40;;;;;;;;;;1822522;79;21129;-74
2021/01/25 04:07:45;;;;;;;7.15;3.60;;;;;;;;;;1819977;79;21122;-74
2021/01/25 04:10:11;;;;;;;7.97;3.42;;;;;;;;;;1816976;79;21098;-73
2021/01/25 04:12:37;;;;;;;8.85;3.95;;;;;;;;;;1816986;79;21283;-73
2021/01/25 04:15:04;;;;;;;6.55;3.92;;;;;;;;;;1817271;79;21573;-74
2021/01/25 04:17:31;;;;;;;8.43;3.83;;;;;;;;;;1816552;79;21121;-74
2021/01/25 04:19:57;;;;;;;12.20;3.95;;;;;;;;;;1817628;79;21141;-73
2021/01/25 04:22:23;;;;;;;9.20;3.90;;;;;;;;;;1817280;79;21141;-75
2021/01/25 04:24:49;;;;;;;7.33;3.72;;;;;;;;;;1817128;79;21573;-74
2021/01/25 04:27:16;;;;;;;8.58;3.77;;;;;;;;;;1817108;79;21149;-74
2021/01/25 04:29:42;;;;;;;5.65;3.58;;;;;;;;;;1817133;79;21140;-74
2021/01/25 04:32:09;;;;;;;6.95;3.35;;;;;;;;;;1817003;79;21173;-74
2021/01/25 04:34:35;;;;;;;8.18;3.62;;;;;;;;;;1817176;79;21129;-74
2021/01/25 04:37:01;;;;;;;8.20;3.77;;;;;;;;;;1817154;79;21564;-73
2021/01/25 04:39:27;;;;;;;7.78;3.55;;;;;;;;;;1817289;79;21166;-73
2021/01/25 04:41:53;;;;;;;6.15;3.58;;;;;;;;;;1817097;79;21561;-74
2021/01/25 04:44:20;;;;;;;8.03;3.45;;;;;;;;;;1817065;79;21169;-74
2021/01/25 04:46:46;;;;;;;6.30;3.55;;;;;;;;;;1817237;79;21138;-74
2021/01/25 04:49:13;;;;;;;6.50;3.65;;;;;;;;;;1817206;79;21153;-73
2021/01/25 04:51:40;;;;;;;7.70;3.67;;;;;;;;;;1817148;79;21145;-74
2021/01/25 04:54:07;;;;;;;8.15;3.35;;;;;;;;;;1817361;79;21141;-74
2021/01/25 04:56:36;;;;;;;7.58;3.50;;;;;;;;;;1817142;79;21252;-73
2021/01/25 04:59:03;;;;;;;7.00;3.30;;;;;;;;;;1817281;79;21149;-74
2021/01/25 05:01:29;;;;;;;7.05;3.77;;;;;;;;;;1817251;79;21137;-75
2021/01/25 05:03:55;;;;;;;11.68;4.45;;;;;;;;;;1817282;79;21114;-73
2021/01/25 05:06:21;;;;;;;7.15;4.22;;;;;;;;;;1817184;79;21145;-73
2021/01/25 05:08:47;;;;;;;7.03;3.70;;;;;;;;;;1814676;79;21137;-73
2021/01/25 05:11:14;;;;;;;6.78;4.00;;;;;;;;;;1814146;79;21640;-74
2021/01/25 05:13:40;;;;;;;9.43;6.33;;;;;;;;;;1814069;79;21193;-74
2021/01/25 05:16:19;;;;;;;10.93;4.62;;;;;;;;;;1814203;79;21530;-74
2021/01/25 05:18:46;;;;;;;8.55;4.05;;;;;;;;;;1814048;79;21601;-74
2021/01/25 05:21:12;;;;;;;7.37;3.42;;;;;;;;;;1814308;79;21141;-74
2021/01/25 05:23:39;;;;;;;5.87;3.55;;;;;;;;;;1814203;79;21168;-74
2021/01/25 05:26:06;;;;;;;4.70;2.87;;;;;;;;;;1814334;79;21121;-74
2021/01/25 05:28:34;;;;;;;8.78;3.65;;;;;;;;;;1814071;79;21138;-74
2021/01/25 05:31:00;;;;;;;7.30;3.62;;;;;;;;;;1813454;79;21183;-73
2021/01/25 05:33:26;;;;;;;6.08;3.20;;;;;;;;;;1814145;79;21664;-74
2021/01/25 05:35:55;;;;;;;7.20;3.35;;;;;;;;;;1814115;79;21117;-74
2021/01/25 05:38:21;;;;;;;7.80;3.50;;;;;;;;;;1813075;79;21150;-73
2021/01/25 05:40:49;;;;;;;10.10;4.15;;;;;;;;;;1814057;79;21568;-73
2021/01/25 05:43:16;;;;;;;7.90;3.50;;;;;;;;;;1813199;79;21585;-74
2021/01/25 05:45:43;;;;;;;12.05;4.03;;;;;;;;;;1814023;79;21109;-74
2021/01/25 05:48:13;;;;;;;9.30;4.10;;;;;;;;;;1814064;79;21557;-74
2021/01/25 05:50:40;;;;;;;6.15;3.40;;;;;;;;;;1814165;79;21110;-74
2021/01/25 05:53:07;;;;;;;7.28;3.87;;;;;;;;;;1814121;79;21596;-74
2021/01/25 05:55:33;;;;;;;10.85;4.00;;;;;;;;;;1814062;79;21146;-74
2021/01/25 05:57:59;;;;;;;7.22;3.70;;;;;;;;;;1814407;79;21168;-75
2021/01/25 06:00:26;;;;;;;8.68;3.70;;;;;;;;;;1814158;79;21549;-74
2021/01/25 06:02:52;;;;;;;6.25;3.58;;;;;;;;;;1814053;79;21098;-74
2021/01/25 06:05:26;;;;;;;8.73;4.12;;;;;;;;;;1814056;79;21146;-74
2021/01/25 06:07:52;;;;;;;10.32;4.80;;;;;;;;;;1814826;79;21181;-74
2021/01/25 06:10:20;;;;;;;7.65;3.60;;;;;;;;;;1817264;79;21177;-74
2021/01/25 06:12:48;;;;;;;7.60;3.90;;;;;;;;;;1817201;79;21572;-74
2021/01/25 06:15:15;;;;;;;9.15;4.70;;;;;;;;;;1817238;79;21169;-74
2021/01/25 06:17:41;;;;;;;9.15;4.40;;;;;;;;;;1817258;79;21125;-73
2021/01/25 06:20:08;;;;;;;8.63;4.20;;;;;;;;;;1817658;79;21121;-74
2021/01/25 06:22:35;;;;;;;10.45;4.40;;;;;;;;;;1817234;79;21192;-74
2021/01/25 06:25:01;;;;;;;7.15;3.95;;;;;;;;;;1817749;79;21125;-74
2021/01/25 06:27:29;;;;;;;5.70;3.60;;;;;;;;;;1817096;79;21122;-74
2021/01/25 06:29:57;;;;;;;11.15;4.15;;;;;;;;;;1817141;79;21149;-74
2021/01/25 06:32:25;;;;;;;8.85;4.30;;;;;;;;;;1817182;79;21122;-74
2021/01/25 06:34:52;;;;;;;8.38;4.37;;;;;;;;;;1816824;79;21145;-74
2021/01/25 06:37:19;;;;;;;8.78;4.37;;;;;;;;;;1817199;79;21125;-73
2021/01/25 06:39:49;;;;;;;9.70;4.33;;;;;;;;;;1789919;79;21209;-74
2021/01/25 06:42:14;;;;;;;4.67;2.70;;;;;;;;;;1816297;79;21137;-74
2021/01/25 06:44:40;;;;;;;6.00;2.72;;;;;;;;;;1817245;79;21585;-73
2021/01/25 06:47:06;;;;;;;1.98;1.02;;;;;;;;;;1817148;79;21086;-74
2021/01/25 06:49:33;;;;;;;6.42;2.40;;;;;;;;;;1817237;79;21098;-74
2021/01/25 06:52:00;;;;;;;2.40;1.37;;;;;;;;;;1789871;79;21605;-74
2021/01/25 06:54:26;;;;;;;0.60;0.33;;;;;;;;;;1817145;79;21141;-73
2021/01/25 06:56:56;;;;;;;6.22;1.37;;;;;;;;;;1817218;79;21141;-73
2021/01/25 06:59:23;;;;;;;2.50;0.80;;;;;;;;;;1817441;79;21098;-74
2021/01/25 07:01:51;;;;;;;1.27;0.65;;;;;;;;;;1817081;79;21677;-74
2021/01/25 07:04:18;;;;;;;0.55;0.37;;;;;;;;;;1809930;79;21114;-74
2021/01/25 07:06:48;;;;;;;0.50;0.20;;;;;;;;;;1820273;79;21180;-75
2021/01/25 07:09:16;;;;;;;1.07;0.17;;;;;;;;;;1801491;79;21100;-74
2021/01/25 07:11:42;;;;;;;3.20;0.80;;;;;;;;;;1812096;79;21104;-74
2021/01/25 07:14:08;;;;;;;0.47;0.28;;;;;;;;;;1810893;79;21145;-75
2021/01/25 07:16:35;;;;;;;0.40;0.40;;;;;;;;;;1814244;79;21274;-75
2021/01/25 07:19:01;;;;;;;1.10;0.47;;;;;;;;;;1796903;79;21140;-74
2021/01/25 07:21:28;;;;;;;0.30;0.30;;;;;;;;;;1802806;79;21184;-74
2021/01/25 07:23:58;;;;;;;0.70;0.42;;;;;;;;;;1777105;79;21101;-73
2021/01/25 07:26:22;;;;;;;0.85;0.42;;;;;;;;;;1774142;79;21123;-74
2021/01/25 07:28:48;;;;;;;0.72;0.30;;;;;;;;;;1804625;79;21160;-74
2021/01/25 07:31:14;;;;;;;0.10;0.10;;;;;;;;;;1814973;79;21160;-73
2021/01/25 07:33:41;;;;;;;0.35;0.10;;;;;;;;;;1817960;79;21148;-74
2021/01/25 07:36:07;;;;;;;0.45;0.20;;;;;;;;;;1820803;79;21120;-74
2021/01/25 07:38:33;;;;;;;0.15;0.10;;;;;;;;;;1798708;79;21165;-73
2021/01/25 07:41:00;;;;;;;0.35;0.20;;;;;;;;;;1789286;80;21188;-73
2021/01/25 07:43:26;;;;;;;0.37;0.13;;;;;;;;;;1789520;80;21139;-74
2021/01/25 07:45:54;;;;;;;0.40;0.20;;;;;;;;;;1790139;80;21160;-73
2021/01/25 07:48:20;;;;;;;0.82;0.28;;;;;;;;;;1790147;80;21157;-73
2021/01/25 07:50:53;;;;;;;0.53;0.40;;;;;;;;;;1790086;80;21129;-74
2021/01/25 07:53:19;;;;;;;0.25;0.20;;;;;;;;;;1790291;80;21173;-74
2021/01/25 07:55:45;;;;;;;0.95;0.28;;;;;;;;;;1790449;80;21268;-74
2021/01/25 07:58:11;;;;;;;0.47;0.23;;;;;;;;;;1790235;80;21109;-74
2021/01/25 08:00:40;;;;;;;0.23;0.20;;;;;;;;;;1790344;80;21187;-74
2021/01/25 08:03:12;;;;;;;0.53;0.30;;;;;;;;;;1790096;80;21125;-73
2021/01/25 08:05:38;;;;;;;2.83;0.25;;;;;;;;;;1764120;80;21195;-73
2021/01/25 08:08:04;;;;;;;1.70;0.30;;;;;;;;;;1787082;80;21136;-73
2021/01/25 08:10:31;;;;;;;0.82;0.20;;;;;;;;;;1763859;81;21113;-73
2021/01/25 08:13:02;;;;;;;0.75;0.20;;;;;;;;;;1764240;81;21139;-75
2021/01/25 08:15:29;;;;;;;1.60;0.30;;;;;;;;;;1755583;81;21139;-73
2021/01/25 08:17:57;;;;;;;1.22;0.33;;;;;;;;;;1763801;81;21583;-74
2021/01/25 08:20:24;;;;;;;1.37;0.10;;;;;;;;;;1763887;81;21590;-73
2021/01/25 08:23:08;;;;;;;0.78;0.33;;;;;;;;;;1764035;81;21171;-74
2021/01/25 08:25:35;;;;;;;4.97;0.40;;;;;;;;;;1763924;81;21138;-73
2021/01/25 08:28:05;;;;;;;1.55;0.40;;;;;;;;;;1763942;81;21610;-74
2021/01/25 08:30:34;;;;;;;1.10;0.20;;;;;;;;;;1763211;81;21422;-73
2021/01/25 08:33:07;;;;;;;1.82;0.20;;;;;;;;;;1763348;81;21131;-73
2021/01/25 08:36:44;;;;;;;3.22;0.37;;;;;;;;;;1735683;81;21135;-74
2021/01/25 08:38:48;;;;;;;1.30;0.30;;;;;;;;;;1716528;81;21143;-74
2021/01/25 08:41:32;;;;;;;0.65;0.30;;;;;;;;;;1746678;81;21191;-73
2021/01/25 08:44:05;;;;;;;0.25;0.20;;;;;;;;;;1637661;87;21848;-74
2021/01/25 08:50:20;;;;;;;3.67;0.47;;;;;;;;;;1846307;77;22838;-74
2021/01/25 08:52:47;;;;;;;1.37;0.62;;;;;;;;;;1831833;78;21549;-74
2021/01/25 08:55:15;;;;;;;3.33;0.23;;;;;;;;;;1813607;78;21250;-75
2021/01/25 08:57:43;;;;;;;1.85;0.20;;;;;;;;;;1831054;78;21113;-73
2021/01/25 09:00:11;;;;;;;0.72;0.20;;;;;;;;;;1831755;78;21113;-73
2021/01/25 09:02:37;;;;;;;0.55;0.28;;;;;;;;;;1832023;78;21129;-74
2021/01/25 09:05:04;;;;;;;0.20;0.20;;;;;;;;;;1831796;78;21098;-73
2021/01/25 09:07:30;;;;;;;0.60;0.30;;;;;;;;;;1831811;78;21148;-74
2021/01/25 09:09:56;;;;;;;0.20;0.17;;;;;;;;;;1831744;78;21539;-74
2021/01/25 09:12:22;;;;;;;1.27;0.37;;;;;;;;;;1831961;78;21170;-74
2021/01/25 09:14:48;;;;;;;1.17;0.25;;;;;;;;;;1831693;78;21141;-73
2021/01/25 09:17:15;;;;;;;0.20;0.10;;;;;;;;;;1831633;78;21497;-75
2021/01/25 09:19:46;;;;;;;0.70;0.40;;;;;;;;;;1831736;78;21490;-75
2021/01/25 09:22:09;;;;;;;0.78;0.25;;;;;;;;;;1830356;78;21126;-74
2021/01/25 09:24:37;;;;;;;0.47;0.25;;;;;;;;;;1831734;78;21161;-74
2021/01/25 09:27:04;;;;;;;6.17;0.42;;;;;;;;;;1831675;78;21106;-74
2021/01/25 09:29:30;;;;;;;0.10;0.10;;;;;;;;;;1831792;78;21141;-73
2021/01/25 09:31:56;;;;;;;0.33;0.10;;;;;;;;;;1832206;78;21636;-73
2021/01/25 09:34:24;;;;;;;1.77;0.33;;;;;;;;;;1832119;78;21513;-74
2021/01/25 09:36:50;;;;;;;0.30;0.20;;;;;;;;;;1831740;78;21113;-73
2021/01/25 09:39:17;;;;;;;1.90;0.20;;;;;;;;;;1832116;78;21165;-74
2021/01/25 09:41:44;;;;;;;0.68;0.20;;;;;;;;;;1831807;78;21121;-74
2021/01/25 09:44:10;;;;;;;1.22;0.33;;;;;;;;;;1831733;78;21529;-74
2021/01/25 09:46:36;;;;;;;0.68;0.20;;;;;;;;;;1831949;78;21188;-74
2021/01/25 09:49:03;;;;;;;4.37;0.33;;;;;;;;;;1826921;78;21114;-74
2021/01/25 09:51:29;;;;;;;1.17;0.50;;;;;;;;;;1820716;79;21137;-76
2021/01/25 09:53:55;;;;;;;1.35;0.30;;;;;;;;;;1820502;79;21130;-74
2021/01/25 09:56:21;;;;;;;0.37;0.20;;;;;;;;;;1820461;79;21129;-74
2021/01/25 09:58:47;;;;;;;0.35;0.20;;;;;;;;;;1820710;79;21117;-73
2021/01/25 10:01:13;;;;;;;0.65;0.30;;;;;;;;;;1820065;79;21541;-74
2021/01/25 10:03:40;;;;;;;1.47;0.20;;;;;;;;;;1819937;79;21102;-73
2021/01/25 10:06:07;;;;;;;2.00;0.40;;;;;;;;;;1819968;79;21117;-74
2021/01/25 10:08:36;;;;;;;0.57;0.20;;;;;;;;;;1819831;79;21118;-74
2021/01/25 10:11:03;;;;;;;0.82;0.17;;;;;;;;;;1819909;79;21245;-73
2021/01/25 10:13:31;;;;;;;1.40;0.30;;;;;;;;;;1819978;79;21087;-73
2021/01/25 10:15:57;;;;;;;0.53;0.20;;;;;;;;;;1819865;79;21220;-74
2021/01/25 10:18:25;;;;;;;0.75;0.17;;;;;;;;;;1819751;79;21153;-74
2021/01/25 10:20:51;;;;;;;2.08;0.45;;;;;;;;;;1819720;79;21125;-74
2021/01/25 10:23:17;;;;;;;0.08;0.08;;;;;;;;;;1819858;79;21098;-74
2021/01/25 10:25:44;;;;;;;5.62;2.87;;;;;;;;;;1819738;79;21699;-74
2021/01/25 10:28:10;;;;;;;0.15;0.10;;;;;;;;;;1820080;79;21134;-74
2021/01/25 10:30:37;;;;;;;0.15;0.15;;;;;;;;;;1820046;79;21133;-74
2021/01/25 10:33:03;;;;;;;0.40;0.17;;;;;;;;;;1819774;78;21236;-74
2021/01/25 10:35:29;;;;;;;1.10;0.30;;;;;;;;;;1819775;78;21109;-73
2021/01/25 10:37:56;;;;;;;0.40;0.20;;;;;;;;;;1819953;79;21130;-73
2021/01/25 10:40:22;;;;;;;0.25;0.15;;;;;;;;;;1819749;78;21129;-74
2021/01/25 10:42:48;;;;;;;0.53;0.30;;;;;;;;;;1819860;79;21134;-74
2021/01/25 10:45:14;;;;;;;1.02;0.40;;;;;;;;;;1819878;78;21118;-74
2021/01/25 10:47:40;;;;;;;0.98;0.30;;;;;;;;;;1819859;79;21122;-74
2021/01/25 10:50:07;;;;;;;0.78;0.50;;;;;;;;;;1824212;77;21573;-74
2021/01/25 10:52:34;;;;;;;0.72;0.20;;;;;;;;;;1825840;78;21134;-74
2021/01/25 10:55:00;;;;;;;2.00;0.17;;;;;;;;;;1826000;78;21118;-74
2021/01/25 10:57:26;;;;;;;1.35;0.30;;;;;;;;;;1825865;78;21117;-74
2021/01/25 10:59:52;;;;;;;0.95;0.53;;;;;;;;;;1825764;78;21161;-74
2021/01/25 11:02:19;;;;;;;2.92;0.50;;;;;;;;;;1825839;78;21133;-74
2021/01/25 11:04:48;;;;;;;0.60;0.37;;;;;;;;;;1825853;78;21565;-74
2021/01/25 11:07:15;;;;;;;0.20;0.17;;;;;;;;;;1825843;78;21128;-73
2021/01/25 11:09:42;;;;;;;1.17;0.33;;;;;;;;;;1825777;78;21561;-74
2021/01/25 11:12:08;;;;;;;0.60;0.28;;;;;;;;;;1826112;78;21105;-73
2021/01/25 11:14:34;;;;;;;2.65;0.20;;;;;;;;;;1826118;78;21109;-73
2021/01/25 11:17:00;;;;;;;1.42;0.40;;;;;;;;;;1825767;78;21117;-73
2021/01/25 11:19:27;;;;;;;1.57;0.30;;;;;;;;;;1825813;78;21550;-73
2021/01/25 11:21:53;;;;;;;0.78;0.40;;;;;;;;;;1826018;78;21125;-75
2021/01/25 11:24:19;;;;;;;1.05;0.42;;;;;;;;;;1825749;78;21121;-74
2021/01/25 11:26:45;;;;;;;1.40;0.50;;;;;;;;;;1825908;78;21102;-74
2021/01/25 11:29:14;;;;;;;1.15;0.53;;;;;;;;;;1825820;78;21585;-73
2021/01/25 11:31:40;;;;;;;4.22;0.90;;;;;;;;;;1825853;78;21137;-73
2021/01/25 11:34:06;;;;;;;2.55;0.68;;;;;;;;;;1825879;78;21138;-74
2021/01/25 11:36:32;;;;;;;1.30;0.57;;;;;;;;;;1810386;78;21097;-74
2021/01/25 11:38:58;;;;;;;1.22;0.75;;;;;;;;;;1825949;78;21141;-73
2021/01/25 11:41:24;;;;;;;1.47;0.50;;;;;;;;;;1826125;78;21113;-73
2021/01/25 11:43:50;;;;;;;2.30;0.95;;;;;;;;;;1825835;78;21552;-74
2021/01/25 11:46:17;;;;;;;2.80;1.00;;;;;;;;;;1825715;78;21145;-73
2021/01/25 11:48:43;;;;;;;1.70;0.70;;;;;;;;;;1825007;78;21125;-74
2021/01/25 11:51:09;;;;;;;1.25;0.68;;;;;;;;;;1815141;79;21109;-73
2021/01/25 11:53:35;;;;;;;0.55;0.40;;;;;;;;;;1815015;79;21298;-74
2021/01/25 11:56:02;;;;;;;0.93;0.45;;;;;;;;;;1814910;79;21707;-74
2021/01/25 11:58:28;;;;;;;2.87;0.72;;;;;;;;;;1814853;79;21591;-73
2021/01/25 12:00:54;;;;;;;1.82;0.90;;;;;;;;;;1815093;79;21112;-74
2021/01/25 12:03:21;;;;;;;1.75;0.80;;;;;;;;;;1814932;79;21121;-74
2021/01/25 12:05:47;;;;;;;3.33;0.50;;;;;;;;;;1815010;79;21120;-74
2021/01/25 12:08:13;;;;;;;2.40;0.80;;;;;;;;;;1814909;79;21520;-75
2021/01/25 12:10:39;;;;;;;1.57;0.80;;;;;;;;;;1814773;79;21117;-76
2021/01/25 12:13:05;;;;;;;2.92;0.60;;;;;;;;;;1815057;79;21125;-73
2021/01/25 12:15:32;;;;;;;2.40;0.50;;;;;;;;;;1814988;79;21552;-74
2021/01/25 12:17:58;;;;;;;3.85;1.00;;;;;;;;;;1814816;79;21149;-73
2021/01/25 12:20:24;;;;;;;1.45;0.70;;;;;;;;;;1814998;79;21125;-75
2021/01/25 12:22:51;;;;;;;3.02;1.30;;;;;;;;;;1814975;79;21140;-73
2021/01/25 12:25:17;;;;;;;3.15;0.90;;;;;;;;;;1814923;79;21109;-74
2021/01/25 12:27:43;;;;;;;3.35;0.70;;;;;;;;;;1814958;79;21148;-74
2021/01/25 12:30:14;;;;;;;4.08;1.10;;;;;;;;;;1814751;79;21086;-73
2021/01/25 12:32:38;;;;;;;5.33;1.07;;;;;;;;;;1814570;79;21541;-74
2021/01/25 12:35:06;;;;;;;3.52;0.90;;;;;;;;;;1814932;79;21121;-74
2021/01/25 12:37:32;;;;;;;1.92;0.80;;;;;;;;;;1815024;79;21115;-74
2021/01/25 12:39:58;;;;;;;1.72;0.80;;;;;;;;;;1814954;79;21643;-74
2021/01/25 12:42:24;;;;;;;1.67;0.70;;;;;;;;;;1815039;79;21133;-74
2021/01/25 12:44:51;;;;;;;2.90;1.07;;;;;;;;;;1814904;79;21162;-75
2021/01/25 12:47:17;;;;;;;1.60;0.60;;;;;;;;;;1815201;79;21157;-73
2021/01/25 12:49:43;;;;;;;1.42;0.80;;;;;;;;;;1818881;78;21086;-74
2021/01/25 12:52:09;;;;;;;3.65;0.50;;;;;;;;;;1825840;78;21589;-73
2021/01/25 12:54:35;;;;;;;2.00;0.90;;;;;;;;;;1826323;78;21118;-75
2021/01/25 12:57:01;;;;;;;1.35;0.88;;;;;;;;;;1825983;78;21506;-74
2021/01/25 12:59:29;;;;;;;4.87;0.78;;;;;;;;;;1823920;78;21636;-73
2021/01/25 13:01:55;;;;;;;2.00;1.00;;;;;;;;;;1825715;78;21114;-73
2021/01/25 13:04:22;;;;;;;2.37;1.10;;;;;;;;;;1826054;78;21122;-73
2021/01/25 13:06:48;;;;;;;7.33;0.98;;;;;;;;;;1825769;78;21086;-74
2021/01/25 13:09:14;;;;;;;1.80;0.88;;;;;;;;;;1825717;78;21098;-74
2021/01/25 13:11:40;;;;;;;0.62;0.55;;;;;;;;;;1825793;78;21165;-74
2021/01/25 13:14:06;;;;;;;2.62;0.75;;;;;;;;;;1825903;78;21129;-74
2021/01/25 13:16:33;;;;;;;1.67;0.78;;;;;;;;;;1825638;78;21576;-73
2021/01/25 13:18:59;;;;;;;2.00;0.90;;;;;;;;;;1825953;78;21145;-74
2021/01/25 13:21:25;;;;;;;2.17;0.65;;;;;;;;;;1825769;78;21137;-74
2021/01/25 13:23:51;;;;;;;1.52;0.60;;;;;;;;;;1825792;78;22158;-73
2021/01/25 13:26:18;;;;;;;4.72;0.60;;;;;;;;;;1825883;78;21133;-73
2021/01/25 13:28:44;;;;;;;3.72;0.88;;;;;;;;;;1825733;78;21130;-74
2021/01/25 13:31:10;;;;;;;2.40;0.80;;;;;;;;;;1826048;78;21134;-73
2021/01/25 13:33:36;;;;;;;1.98;0.95;;;;;;;;;;1826043;78;21525;-74
2021/01/25 13:36:02;;;;;;;5.62;1.00;;;;;;;;;;1825914;78;21157;-76
2021/01/25 13:38:29;;;;;;;2.35;1.05;;;;;;;;;;1793504;80;21141;-74
2021/01/25 13:40:55;;;;;;;3.47;1.07;;;;;;;;;;1762352;81;21544;-75
2021/01/25 13:43:21;;;;;;;2.25;0.80;;;;;;;;;;1787642;80;21266;-74
2021/01/25 13:45:48;;;;;;;1.80;0.78;;;;;;;;;;1787758;80;21687;-74
2021/01/25 13:48:14;;;;;;;2.08;1.10;;;;;;;;;;1787609;80;21155;-73
2021/01/25 13:50:41;;;;;;;1.98;0.93;;;;;;;;;;1787644;80;21143;-74
2021/01/25 13:53:08;;;;;;;1.87;0.88;;;;;;;;;;1787674;80;21297;-74
2021/01/25 13:55:35;;;;;;;2.52;1.40;;;;;;;;;;1787956;80;21151;-74
2021/01/25 13:58:01;;;;;;;2.70;1.25;;;;;;;;;;1787655;80;21258;-74
2021/01/25 14:00:28;;;;;;;7.15;1.70;;;;;;;;;;1787930;80;21212;-75
2021/01/25 14:02:55;;;;;;;2.87;1.17;;;;;;;;;;1787605;80;21611;-73
2021/01/25 14:05:21;;;;;;;2.55;1.30;;;;;;;;;;1787651;80;21297;-73
2021/01/25 14:07:48;;;;;;;1.75;1.02;;;;;;;;;;1787692;80;21555;-73
2021/01/25 14:10:14;;;;;;;2.65;1.30;;;;;;;;;;1787594;80;21152;-73
2021/01/25 14:12:40;;;;;;;1.80;1.12;;;;;;;;;;1787755;80;21154;-73
2021/01/25 14:15:07;;;;;;;2.72;1.45;;;;;;;;;;1787698;80;21246;-74
2021/01/25 14:17:33;;;;;;;3.50;1.10;;;;;;;;;;1787671;80;21544;-73
2021/01/25 14:19:59;;;;;;;1.77;1.02;;;;;;;;;;1787554;80;21289;-74
2021/01/25 14:22:28;;;;;;;5.17;1.20;;;;;;;;;;1787576;80;21130;-74
2021/01/25 14:24:54;;;;;;;2.40;1.40;;;;;;;;;;1787659;80;21571;-73
2021/01/25 14:27:20;;;;;;;4.25;1.40;;;;;;;;;;1787792;80;21571;-73
2021/01/25 14:29:47;;;;;;;2.40;1.40;;;;;;;;;;1787564;80;21297;-73
2021/01/25 14:32:13;;;;;;;3.27;1.62;;;;;;;;;;1787785;80;21127;-73
2021/01/25 14:34:40;;;;;;;4.10;2.08;;;;;;;;;;1787792;80;21116;-73
2021/01/25 14:37:06;;;;;;;2.80;1.70;;;;;;;;;;1787605;80;21265;-74
2021/01/25 14:39:32;;;;;;;2.95;2.20;;;;;;;;;;1787898;80;21132;-73
2021/01/25 14:41:59;;;;;;;3.92;2.35;;;;;;;;;;1787754;80;21536;-73